createdAt,value
2022-08-07T00:00:45.976Z,42.27
2022-08-07T00:03:36.788Z,42.13
2022-08-07T00:06:29.764Z,42.30
2022-08-07T00:09:35.564Z,42.35
2022-08-07T00:12:23.917Z,42.37
2022-08-07T00:15:13.854Z,42.71
2022-08-07T00:18:03.032Z,42.68
2022-08-07T00:20:51.260Z,42.77
2022-08-07T00:23:41.925Z,42.75
2022-08-07T00:26:49.465Z,42.77
2022-08-07T00:29:37.925Z,42.75
2022-08-07T00:32:28.377Z,42.94
2022-08-07T00:35:16.723Z,43.07
2022-08-07T00:38:06.162Z,43.28
2022-08-07T00:40:55.704Z,43.33
2022-08-07T00:44:01.991Z,43.16
2022-08-07T00:46:51.515Z,43.44
2022-08-07T00:50:19.096Z,43.81
2022-08-07T00:52:48.805Z,43.53
2022-08-07T00:56:02.630Z,43.82
2022-08-07T00:58:49.811Z,43.67
2022-08-07T01:01:44.543Z,43.75
2022-08-07T01:04:36.393Z,43.74
2022-08-07T01:07:31.555Z,43.76
2022-08-07T01:10:20.731Z,43.94
2022-08-07T01:13:09.207Z,43.82
2022-08-07T01:16:00.945Z,44.09
2022-08-07T01:18:54.416Z,44.09
2022-08-07T01:21:46.163Z,44.36
2022-08-07T01:24:35.434Z,44.18
2022-08-07T01:27:24.078Z,44.51
2022-08-07T01:30:21.279Z,44.65
2022-08-07T01:33:16.514Z,44.49
2022-08-07T01:36:08.717Z,44.30
2022-08-07T01:39:04.159Z,44.42
2022-08-07T01:42:07.706Z,44.66
2022-08-07T01:45:10.062Z,45.20
2022-08-07T01:48:19.182Z,45.41
2022-08-07T01:52:02.176Z,45.41
2022-08-07T01:54:37.219Z,45.51
2022-08-07T01:58:05.858Z,45.74
2022-08-07T02:00:48.939Z,46.02
2022-08-07T02:03:50.187Z,45.87
2022-08-07T02:06:42.148Z,45.86
2022-08-07T02:09:52.996Z,46.06
2022-08-07T02:12:46.299Z,45.96
2022-08-07T02:15:42.730Z,46.27
2022-08-07T02:18:33.954Z,46.19
2022-08-07T02:21:25.890Z,46.40
2022-08-07T02:24:17.630Z,46.68
2022-08-07T02:27:08.648Z,46.69
2022-08-07T02:29:58.956Z,46.73
2022-08-07T02:33:00.408Z,46.77
2022-08-07T02:36:29.776Z,47.04
2022-08-07T02:39:09.277Z,47.12
2022-08-07T02:42:14.943Z,47.26
2022-08-07T02:45:58.749Z,47.64
2022-08-07T02:48:19.790Z,47.36
2022-08-07T02:51:28.884Z,47.26
2022-08-07T02:54:27.088Z,47.14
2022-08-07T02:57:19.527Z,46.93
2022-08-07T03:00:11.925Z,46.76
2022-08-07T03:03:06.006Z,46.71
2022-08-07T03:05:58.165Z,46.85
2022-08-07T03:08:46.995Z,47.08
2022-08-07T03:11:38.570Z,47.30
2022-08-07T03:14:31.053Z,46.93
2022-08-07T03:17:19.397Z,47.05
2022-08-07T03:20:12.106Z,47.35
2022-08-07T03:23:03.590Z,47.19
2022-08-07T03:25:56.758Z,47.44
2022-08-07T03:28:47.584Z,47.79
2022-08-07T03:31:46.589Z,47.58
2022-08-07T03:34:40.168Z,47.75
2022-08-07T03:37:46.356Z,47.87
2022-08-07T03:40:44.424Z,48.08
2022-08-07T03:43:36.103Z,48.24
2022-08-07T03:46:27.636Z,47.95
2022-08-07T03:49:20.165Z,47.59
2022-08-07T03:52:22.638Z,47.60
2022-08-07T03:55:15.941Z,47.99
2022-08-07T03:58:32.675Z,48.46
2022-08-07T04:01:17.284Z,47.93
2022-08-07T04:04:08.544Z,48.49
2022-08-07T04:07:16.717Z,48.64
2022-08-07T04:10:19.391Z,48.51
2022-08-07T04:13:15.431Z,48.20
2022-08-07T04:16:05.218Z,48.29
2022-08-07T04:19:01.792Z,48.83
2022-08-07T04:22:05.377Z,48.69
2022-08-07T04:25:02.333Z,49.22
2022-08-07T04:27:58.999Z,48.74
2022-08-07T04:30:57.087Z,48.87
2022-08-07T04:33:56.425Z,48.56
2022-08-07T04:36:48.857Z,49.21
2022-08-07T04:39:38.645Z,49.45
2022-08-07T04:42:37.956Z,50.15
2022-08-07T04:45:57.574Z,49.52
2022-08-07T04:48:57.035Z,49.72
2022-08-07T04:51:57.606Z,49.93
2022-08-07T04:54:55.855Z,50.58
2022-08-07T04:58:09.810Z,51.17
2022-08-07T05:01:15.765Z,51.68
2022-08-07T05:04:12.315Z,52.15
2022-08-07T05:07:20.471Z,53.11
2022-08-07T05:10:17.314Z,53.80
2022-08-07T05:14:52.323Z,53.74
2022-08-07T05:16:21.414Z,54.73
2022-08-07T05:19:16.479Z,55.15
2022-08-07T05:22:10.077Z,54.64
2022-08-07T05:25:01.640Z,54.07
2022-08-07T05:28:02.928Z,55.43
2022-08-07T05:31:12.395Z,55.15
2022-08-07T05:34:05.804Z,54.97
2022-08-07T05:37:00.708Z,55.02
2022-08-07T05:40:05.937Z,54.66
2022-08-07T05:43:02.646Z,55.09
2022-08-07T05:45:52.495Z,55.90
2022-08-07T05:48:58.032Z,56.05
2022-08-07T05:51:48.164Z,56.39
2022-08-07T05:54:53.882Z,56.92
2022-08-07T05:57:47.161Z,57.47
2022-08-07T06:00:38.152Z,58.23
2022-08-07T06:03:53.711Z,57.75
2022-08-07T06:06:46.116Z,57.11
2022-08-07T06:09:56.595Z,57.03
2022-08-07T06:12:44.570Z,57.29
2022-08-07T06:15:39.452Z,57.55
2022-08-07T06:18:35.145Z,57.31
2022-08-07T06:22:15.815Z,56.69
2022-08-07T06:24:46.200Z,55.77
2022-08-07T06:27:44.115Z,56.15
2022-08-07T06:30:51.836Z,55.17
2022-08-07T06:33:43.080Z,54.99
2022-08-07T06:36:35.805Z,54.03
2022-08-07T06:40:15.682Z,53.59
2022-08-07T06:42:38.052Z,53.14
2022-08-07T06:45:49.695Z,52.55
2022-08-07T06:48:37.996Z,52.50
2022-08-07T06:51:34.520Z,52.12
2022-08-07T06:55:31.567Z,50.88
2022-08-07T06:57:48.372Z,50.38
2022-08-07T07:00:45.532Z,49.90
2022-08-07T07:03:47.900Z,50.24
2022-08-07T07:06:57.325Z,49.45
2022-08-07T07:09:47.166Z,48.74
2022-08-07T07:12:48.791Z,47.96
2022-08-07T07:15:51.519Z,46.67
2022-08-07T07:18:48.110Z,45.90
2022-08-07T07:22:11.727Z,44.75
2022-08-07T07:24:58.497Z,43.52
2022-08-07T07:28:02.814Z,42.61
2022-08-07T07:30:56.957Z,41.74
2022-08-07T07:33:56.463Z,39.61
2022-08-07T07:36:47.853Z,39.17
2022-08-07T07:39:52.048Z,38.31
2022-08-07T07:42:47.223Z,37.53
2022-08-07T07:46:38.222Z,36.09
2022-08-07T07:48:51.587Z,37.40
2022-08-07T07:51:57.463Z,36.83
2022-08-07T07:54:51.302Z,36.40
2022-08-07T07:57:44.048Z,36.39
2022-08-07T08:00:48.707Z,35.76
2022-08-07T08:04:09.796Z,35.79
2022-08-07T08:06:54.269Z,36.10
2022-08-07T08:09:52.066Z,37.43
2022-08-07T08:12:59.789Z,38.62
2022-08-07T08:15:58.536Z,39.20
2022-08-07T08:18:50.418Z,41.16
2022-08-07T08:22:03.142Z,40.60
2022-08-07T08:25:24.865Z,40.67
2022-08-07T08:28:37.889Z,41.58
2022-08-07T08:32:10.163Z,41.15
2022-08-07T08:34:53.812Z,40.83
2022-08-07T08:38:00.901Z,41.59
2022-08-07T08:40:55.932Z,41.25
2022-08-07T08:43:56.178Z,40.47
2022-08-07T08:46:55.806Z,41.35
2022-08-07T08:50:04.843Z,40.61
2022-08-07T08:53:03.497Z,40.64
2022-08-07T08:55:58.936Z,39.95
2022-08-07T08:58:54.534Z,39.99
2022-08-07T09:01:49.162Z,39.99
2022-08-07T09:04:46.661Z,39.63
2022-08-07T09:07:57.466Z,39.05
2022-08-07T09:10:54.010Z,38.58
2022-08-07T09:13:55.721Z,38.10
2022-08-07T09:17:01.041Z,37.58
2022-08-07T09:19:59.093Z,37.38
2022-08-07T09:24:33.530Z,36.73
2022-08-07T09:26:20.918Z,35.21
2022-08-07T09:30:00.735Z,34.26
2022-08-07T09:32:33.157Z,34.98
2022-08-07T09:36:04.741Z,34.96
2022-08-07T09:39:00.182Z,34.82
2022-08-07T09:42:09.373Z,34.14
2022-08-07T09:47:24.422Z,33.45
2022-08-07T09:48:43.936Z,32.35
2022-08-07T09:52:09.874Z,31.47
2022-08-07T09:55:05.453Z,32.28
2022-08-07T09:58:32.467Z,32.61
2022-08-07T10:01:51.223Z,30.73
2022-08-07T10:05:12.088Z,31.01
2022-08-07T10:08:17.586Z,30.44
2022-08-07T10:12:00.592Z,31.39
2022-08-07T10:14:42.559Z,30.61
2022-08-07T10:18:02.912Z,31.61
2022-08-07T10:21:20.006Z,30.53
2022-08-07T10:24:50.616Z,30.95
2022-08-07T10:28:04.310Z,30.51
2022-08-07T10:31:11.166Z,30.21
2022-08-07T10:34:18.174Z,31.17
2022-08-07T10:38:00.949Z,30.51
2022-08-07T10:40:49.352Z,29.70
2022-08-07T10:43:44.095Z,30.40
2022-08-07T10:46:42.322Z,30.05
2022-08-07T10:49:49.236Z,29.51
2022-08-07T10:52:51.191Z,29.99
2022-08-07T10:55:50.238Z,29.37
2022-08-07T10:58:59.868Z,29.13
2022-08-07T11:02:05.142Z,28.39
2022-08-07T11:05:49.033Z,28.01
2022-08-07T11:08:44.580Z,28.10
2022-08-07T11:11:37.951Z,28.02
2022-08-07T11:14:45.763Z,27.24
2022-08-07T11:17:45.758Z,27.38
2022-08-07T11:20:42.871Z,27.58
2022-08-07T11:23:40.503Z,27.66
2022-08-07T11:26:38.483Z,27.85
2022-08-07T11:29:42.763Z,28.11
2022-08-07T11:32:40.583Z,27.25
2022-08-07T11:35:35.115Z,27.24
2022-08-07T11:38:50.854Z,27.45
2022-08-07T11:42:00.350Z,27.12
2022-08-07T11:44:57.533Z,26.98
2022-08-07T11:48:02.695Z,27.79
2022-08-07T11:51:09.992Z,27.27
2022-08-07T11:54:10.385Z,27.40
2022-08-07T11:57:12.563Z,27.42
2022-08-07T12:00:18.707Z,27.30
2022-08-07T12:03:41.441Z,26.27
2022-08-07T12:06:51.625Z,26.03
2022-08-07T12:09:51.928Z,26.36
2022-08-07T12:12:47.440Z,26.62
2022-08-07T12:16:05.646Z,26.75
2022-08-07T12:18:54.553Z,26.50
2022-08-07T12:22:39.273Z,26.52
2022-08-07T12:26:21.572Z,26.08
2022-08-07T12:28:44.887Z,26.57
2022-08-07T12:31:52.972Z,26.31
2022-08-07T12:34:55.698Z,26.44
2022-08-07T12:38:11.324Z,26.63
2022-08-07T12:41:00.375Z,25.62
2022-08-07T12:44:03.586Z,26.08
2022-08-07T12:47:06.398Z,24.40
2022-08-07T12:50:04.838Z,24.86
2022-08-07T12:53:00.949Z,25.85
2022-08-07T12:56:09.288Z,24.80
2022-08-07T12:59:01.728Z,24.60
2022-08-07T13:02:02.875Z,25.51
2022-08-07T13:06:02.037Z,25.77
2022-08-07T13:08:27.184Z,24.45
2022-08-07T13:11:30.767Z,25.98
2022-08-07T13:14:56.775Z,25.78
2022-08-07T13:17:52.646Z,25.47
2022-08-07T13:20:52.521Z,25.39
2022-08-07T13:24:02.185Z,24.81
2022-08-07T13:26:58.545Z,24.48
2022-08-07T13:29:59.023Z,25.44
2022-08-07T13:32:57.186Z,25.15
2022-08-07T13:36:00.605Z,25.01
2022-08-07T13:38:57.556Z,24.43
2022-08-07T13:41:50.301Z,24.81
2022-08-07T13:44:44.450Z,25.00
2022-08-07T13:48:05.879Z,24.18
2022-08-07T13:51:01.368Z,24.27
2022-08-07T13:54:00.874Z,24.75
2022-08-07T13:56:52.043Z,24.02
2022-08-07T13:59:48.284Z,24.38
2022-08-07T14:02:49.526Z,23.77
2022-08-07T14:05:46.279Z,23.66
2022-08-07T14:08:44.145Z,22.97
2022-08-07T14:11:53.195Z,23.48
2022-08-07T14:14:49.279Z,23.96
2022-08-07T14:18:27.443Z,24.04
2022-08-07T14:20:54.977Z,24.42
2022-08-07T14:24:00.473Z,23.83
2022-08-07T14:26:52.561Z,23.65
2022-08-07T14:30:08.059Z,23.74
2022-08-07T14:32:56.260Z,23.48
2022-08-07T14:35:47.626Z,23.25
2022-08-07T14:38:37.367Z,23.84
2022-08-07T14:41:33.938Z,23.01
2022-08-07T14:44:38.895Z,23.34
2022-08-07T14:47:32.190Z,23.63
2022-08-07T14:50:23.644Z,23.04
2022-08-07T14:53:13.867Z,23.95
2022-08-07T14:56:06.608Z,23.09
2022-08-07T14:59:13.913Z,23.39
2022-08-07T15:02:34.152Z,24.31
2022-08-07T15:05:23.670Z,23.62
2022-08-07T15:08:13.978Z,24.29
2022-08-07T15:11:07.264Z,23.30
2022-08-07T15:14:00.003Z,23.78
2022-08-07T15:17:02.240Z,23.81
2022-08-07T15:20:33.021Z,23.49
2022-08-07T15:23:20.200Z,24.08
2022-08-07T15:26:21.129Z,24.37
2022-08-07T15:30:08.843Z,24.22
2022-08-07T15:36:01.970Z,24.79
2022-08-07T15:42:43.667Z,24.54
2022-08-07T15:45:14.279Z,24.02
2022-08-07T15:48:20.252Z,23.70
2022-08-07T15:51:11.905Z,23.82
2022-08-07T15:54:04.293Z,24.50
2022-08-07T15:56:53.411Z,24.39
2022-08-07T15:59:47.122Z,25.11
2022-08-07T16:02:40.692Z,24.85
2022-08-07T16:05:31.013Z,24.89
2022-08-07T16:08:33.456Z,24.91
2022-08-07T16:11:44.081Z,24.91
2022-08-07T16:14:43.683Z,24.61
2022-08-07T16:18:02.917Z,24.34
2022-08-07T16:22:02.446Z,24.60
2022-08-07T16:24:33.744Z,24.56
2022-08-07T16:27:40.791Z,24.83
2022-08-07T16:30:35.386Z,24.53
2022-08-07T16:34:02.435Z,24.23
2022-08-07T16:37:01.974Z,26.18
2022-08-07T16:40:23.309Z,27.35
2022-08-07T16:44:06.333Z,25.50
2022-08-07T16:47:12.479Z,25.64
2022-08-07T16:50:36.906Z,23.66
2022-08-07T16:54:06.132Z,23.26
2022-08-07T16:57:15.350Z,20.41
2022-08-07T17:00:13.344Z,20.48
2022-08-07T17:03:17.250Z,21.39
2022-08-07T17:06:30.414Z,19.23
2022-08-07T17:10:06.913Z,19.41
2022-08-07T17:12:46.413Z,19.06
2022-08-07T17:15:44.183Z,19.51
2022-08-07T17:18:41.611Z,22.58
2022-08-07T17:21:51.591Z,25.10
2022-08-07T17:25:01.557Z,25.49
2022-08-07T17:27:59.378Z,27.58
2022-08-07T17:30:58.189Z,28.77
2022-08-07T17:34:18.226Z,28.14
2022-08-07T17:37:09.099Z,28.89
2022-08-07T17:40:10.631Z,30.57
2022-08-07T17:43:15.087Z,29.11
2022-08-07T17:46:14.753Z,30.54
2022-08-07T17:49:09.706Z,31.06
2022-08-07T17:52:05.546Z,31.63
2022-08-07T17:55:05.624Z,30.11
2022-08-07T17:58:04.119Z,30.30
2022-08-07T18:00:57.430Z,30.19
2022-08-07T18:04:06.988Z,30.81
2022-08-07T18:07:20.776Z,30.96
2022-08-07T18:10:29.053Z,31.43
2022-08-07T18:13:40.823Z,31.34
2022-08-07T18:16:34.134Z,31.89
2022-08-07T18:21:04.366Z,32.33
2022-08-07T18:22:49.697Z,32.48
2022-08-07T18:25:44.734Z,32.82
2022-08-07T18:28:58.596Z,33.52
2022-08-07T18:32:08.031Z,33.63
2022-08-07T18:35:13.266Z,34.13
2022-08-07T18:38:59.081Z,34.40
2022-08-07T18:41:45.182Z,34.81
2022-08-07T18:45:39.916Z,35.21
2022-08-07T18:48:01.589Z,35.89
2022-08-07T18:51:09.668Z,36.58
2022-08-07T18:54:27.706Z,37.65
2022-08-07T18:57:31.602Z,38.09
2022-08-07T19:00:42.249Z,38.59
2022-08-07T19:03:49.772Z,38.91
2022-08-07T19:06:49.601Z,39.57
2022-08-07T19:09:56.659Z,39.68
2022-08-07T19:12:58.288Z,39.97
2022-08-07T19:16:43.614Z,39.94
2022-08-07T19:19:19.636Z,40.01
2022-08-07T19:22:31.380Z,40.30
2022-08-07T19:26:23.075Z,41.99
2022-08-07T19:30:55.987Z,41.73
2022-08-07T19:32:08.256Z,41.42
2022-08-07T19:35:02.908Z,41.53
2022-08-07T19:37:58.248Z,41.19
2022-08-07T19:40:51.845Z,42.01
2022-08-07T19:43:49.475Z,41.70
2022-08-07T19:46:55.855Z,41.96
2022-08-07T19:49:57.256Z,42.24
2022-08-07T19:52:46.853Z,41.73
2022-08-07T19:55:57.645Z,41.99
2022-08-07T19:58:53.080Z,42.09
2022-08-07T20:01:57.150Z,41.83
2022-08-07T20:04:49.439Z,41.55
2022-08-07T20:07:47.291Z,41.48
2022-08-07T20:10:54.707Z,41.01
2022-08-07T20:13:48.284Z,40.92
2022-08-07T20:16:38.278Z,40.71
2022-08-07T20:19:49.402Z,40.74
2022-08-07T20:22:47.021Z,40.03
2022-08-07T20:25:40.039Z,39.81
2022-08-07T20:28:31.697Z,40.13
2022-08-07T20:31:23.229Z,39.75
2022-08-07T20:34:13.741Z,39.80
2022-08-07T20:37:05.500Z,39.32
2022-08-07T20:40:03.730Z,39.47
2022-08-07T20:42:56.612Z,39.06
2022-08-07T20:46:27.302Z,39.17
2022-08-07T20:50:01.249Z,39.25
2022-08-07T20:52:24.424Z,39.17
2022-08-07T20:55:18.229Z,38.60
2022-08-07T20:58:08.997Z,38.21
2022-08-07T21:01:19.324Z,39.29
2022-08-07T21:04:25.644Z,39.34
2022-08-07T21:07:19.522Z,39.34
2022-08-07T21:10:14.800Z,40.00
2022-08-07T21:13:15.128Z,40.41
2022-08-07T21:16:06.547Z,40.02
2022-08-07T21:18:57.577Z,40.12
2022-08-07T21:21:57.132Z,40.11
2022-08-07T21:24:56.239Z,40.34
2022-08-07T21:28:02.014Z,40.34
2022-08-07T21:30:57.872Z,40.74
2022-08-07T21:33:50.953Z,40.28
2022-08-07T21:36:50.181Z,40.71
2022-08-07T21:39:55.084Z,40.87
2022-08-07T21:42:51.054Z,41.15
2022-08-07T21:46:08.946Z,40.70
2022-08-07T21:48:57.936Z,40.39
2022-08-07T21:52:03.163Z,40.73
2022-08-07T21:55:06.599Z,40.67
2022-08-07T21:58:06.235Z,40.63
2022-08-07T22:01:00.484Z,40.56
2022-08-07T22:03:58.872Z,40.44
2022-08-07T22:06:58.974Z,41.01
2022-08-07T22:09:54.404Z,40.86
2022-08-07T22:12:49.598Z,40.90
2022-08-07T22:16:39.130Z,41.26
2022-08-07T22:19:01.260Z,40.96
2022-08-07T22:22:05.321Z,41.20
2022-08-07T22:25:12.112Z,40.95
2022-08-07T22:28:30.792Z,40.84
2022-08-07T22:31:56.242Z,41.74
2022-08-07T22:34:53.699Z,41.06
2022-08-07T22:38:03.455Z,41.44
2022-08-07T22:40:59.880Z,40.84
2022-08-07T22:43:51.501Z,40.20
2022-08-07T22:47:20.098Z,40.29
2022-08-07T22:50:28.995Z,40.61
2022-08-07T22:54:05.386Z,39.69
2022-08-07T22:57:01.435Z,39.91
2022-08-07T23:00:01.669Z,40.50
2022-08-07T23:03:59.033Z,40.03
2022-08-07T23:06:59.444Z,40.23
2022-08-07T23:10:04.474Z,41.17
2022-08-07T23:13:49.279Z,40.68
2022-08-07T23:16:55.825Z,40.18
2022-08-07T23:20:14.176Z,39.64
2022-08-07T23:24:04.369Z,39.67
2022-08-07T23:26:50.377Z,38.89
2022-08-07T23:30:35.700Z,38.87
2022-08-07T23:34:34.243Z,38.90
2022-08-07T23:37:18.661Z,39.16
2022-08-07T23:40:11.770Z,39.17
2022-08-07T23:43:37.548Z,38.96
2022-08-07T23:46:50.810Z,38.47
2022-08-07T23:49:59.086Z,38.80
2022-08-07T23:53:01.038Z,38.75
2022-08-07T23:56:03.613Z,39.08
2022-08-07T23:59:00.397Z,38.92
